createdAt,value
2022-10-17T00:02:27.389Z,86.51
2022-10-17T00:05:29.859Z,86.49
2022-10-17T00:08:32.255Z,86.74
2022-10-17T00:11:34.600Z,87.37
2022-10-17T00:14:37.548Z,87.16
2022-10-17T00:17:39.905Z,86.51
2022-10-17T00:20:42.239Z,87.31
2022-10-17T00:23:45.541Z,87.57
2022-10-17T00:26:47.842Z,87.34
2022-10-17T00:29:51.465Z,87.72
2022-10-17T00:32:53.912Z,87.32
2022-10-17T00:36:12.681Z,87.31
2022-10-17T00:39:15.080Z,87.16
2022-10-17T00:42:17.437Z,87.22
2022-10-17T00:45:25.983Z,87.38
2022-10-17T00:48:28.556Z,87.21
2022-10-17T00:51:37.364Z,87.83
2022-10-17T00:54:44.119Z,87.73
2022-10-17T00:57:47.328Z,87.66
2022-10-17T01:00:49.671Z,87.20
2022-10-17T01:03:52.099Z,87.27
2022-10-17T01:06:54.488Z,88.00
2022-10-17T01:09:57.158Z,87.85
2022-10-17T01:13:07.415Z,88.11
2022-10-17T01:16:34.779Z,87.58
2022-10-17T01:19:52.448Z,87.76
2022-10-17T01:23:26.154Z,88.24
2022-10-17T01:26:48.507Z,88.61
2022-10-17T01:30:22.301Z,88.80
2022-10-17T01:33:56.823Z,88.68
2022-10-17T01:37:16.457Z,89.23
2022-10-17T01:40:22.537Z,88.94
2022-10-17T01:43:43.124Z,89.05
2022-10-17T01:46:50.889Z,88.90
2022-10-17T01:49:56.028Z,88.97
2022-10-17T01:53:14.790Z,89.18
2022-10-17T01:56:19.731Z,88.65
2022-10-17T01:59:40.610Z,88.43
2022-10-17T02:02:45.907Z,88.75
2022-10-17T02:05:48.647Z,88.84
2022-10-17T02:08:51.470Z,89.07
2022-10-17T02:12:33.402Z,88.96
2022-10-17T02:15:53.596Z,88.92
2022-10-17T02:19:14.478Z,89.27
2022-10-17T02:22:31.825Z,89.84
2022-10-17T02:25:46.045Z,90.28
2022-10-17T02:28:52.067Z,89.77
2022-10-17T02:32:11.612Z,89.43
2022-10-17T02:35:15.799Z,88.99
2022-10-17T02:38:19.093Z,88.68
2022-10-17T02:41:24.439Z,88.84
2022-10-17T02:44:30.721Z,88.76
2022-10-17T02:47:56.076Z,89.66
2022-10-17T02:51:17.205Z,89.59
2022-10-17T02:54:45.823Z,89.97
2022-10-17T02:57:56.018Z,89.04
2022-10-17T03:00:59.440Z,89.53
2022-10-17T03:04:15.246Z,90.50
2022-10-17T03:07:18.380Z,90.14
2022-10-17T03:10:21.999Z,89.26
2022-10-17T03:13:24.427Z,89.60
2022-10-17T03:16:26.909Z,88.78
2022-10-17T03:19:29.656Z,89.18
2022-10-17T03:22:32.837Z,89.63
2022-10-17T03:25:37.226Z,89.52
2022-10-17T03:28:40.508Z,89.83
2022-10-17T03:31:43.082Z,90.10
2022-10-17T03:34:46.799Z,89.56
2022-10-17T03:37:49.697Z,89.91
2022-10-17T03:40:56.588Z,89.79
2022-10-17T03:43:59.023Z,89.57
2022-10-17T03:47:03.084Z,89.97
2022-10-17T03:50:06.616Z,90.25
2022-10-17T03:53:12.126Z,90.84
2022-10-17T03:56:17.650Z,90.80
2022-10-17T03:59:24.610Z,90.18
2022-10-17T04:02:35.931Z,90.08
2022-10-17T04:05:38.274Z,89.61
2022-10-17T04:08:42.576Z,89.20
2022-10-17T04:11:48.901Z,89.46
2022-10-17T04:14:52.009Z,89.80
2022-10-17T04:17:56.376Z,90.23
2022-10-17T04:21:01.589Z,90.26
2022-10-17T04:24:04.595Z,89.80
2022-10-17T04:27:18.783Z,90.25
2022-10-17T04:30:22.765Z,89.97
2022-10-17T04:33:25.809Z,90.38
2022-10-17T04:36:28.226Z,89.94
2022-10-17T04:39:30.731Z,90.11
2022-10-17T04:42:33.832Z,90.24
2022-10-17T04:45:36.578Z,90.03
2022-10-17T04:48:41.287Z,89.82
2022-10-17T04:51:43.833Z,90.18
2022-10-17T04:55:07.303Z,90.93
2022-10-17T04:58:09.866Z,90.84
2022-10-17T05:01:18.837Z,91.25
2022-10-17T05:04:26.969Z,91.11
2022-10-17T05:07:29.426Z,90.97
2022-10-17T05:10:46.988Z,90.84
2022-10-17T05:13:54.683Z,90.69
2022-10-17T05:16:57.691Z,90.68
2022-10-17T05:20:00.918Z,90.52
2022-10-17T05:23:05.471Z,90.72
2022-10-17T05:26:13.480Z,90.70
2022-10-17T05:29:16.079Z,90.55
2022-10-17T05:32:23.307Z,90.68
2022-10-17T05:35:25.980Z,90.25
2022-10-17T05:38:29.361Z,90.04
2022-10-17T05:41:32.864Z,90.23
2022-10-17T05:44:35.368Z,89.89
2022-10-17T05:47:38.418Z,89.53
2022-10-17T05:50:41.285Z,89.68
2022-10-17T05:53:49.222Z,89.78
2022-10-17T05:56:58.234Z,89.96
2022-10-17T06:00:05.522Z,89.91
2022-10-17T06:03:16.647Z,90.03
2022-10-17T06:06:19.633Z,90.04
2022-10-17T06:09:24.024Z,90.15
2022-10-17T06:12:29.407Z,90.61
2022-10-17T06:15:32.136Z,90.66
2022-10-17T06:18:39.251Z,90.73
2022-10-17T06:21:41.806Z,88.59
2022-10-17T06:24:55.370Z,87.71
2022-10-17T06:28:00.244Z,87.19
2022-10-17T06:31:12.765Z,87.18
2022-10-17T06:34:19.036Z,87.19
2022-10-17T06:37:22.166Z,87.48
2022-10-17T06:40:24.876Z,87.45
2022-10-17T06:43:28.157Z,87.58
2022-10-17T06:47:02.923Z,86.58
2022-10-17T06:50:05.864Z,88.49
2022-10-17T06:53:34.596Z,84.23
2022-10-17T06:57:01.899Z,85.09
2022-10-17T07:00:23.576Z,79.77
2022-10-17T07:03:30.350Z,82.18
2022-10-17T07:06:33.237Z,81.54
2022-10-17T07:09:42.368Z,79.64
2022-10-17T07:12:45.851Z,81.14
2022-10-17T07:15:48.606Z,80.17
2022-10-17T07:18:54.325Z,79.16
2022-10-17T07:21:57.106Z,77.93
2022-10-17T07:25:00.111Z,76.95
2022-10-17T07:28:07.025Z,78.12
2022-10-17T07:31:12.892Z,77.95
2022-10-17T07:34:15.630Z,75.69
2022-10-17T07:37:19.207Z,76.73
2022-10-17T07:40:27.912Z,75.64
2022-10-17T07:43:31.194Z,76.31
2022-10-17T07:46:35.349Z,75.59
2022-10-17T07:49:42.536Z,75.35
2022-10-17T07:52:45.124Z,76.83
2022-10-17T07:55:49.591Z,75.46
2022-10-17T07:58:53.239Z,75.72
2022-10-17T08:01:56.719Z,75.11
2022-10-17T08:04:59.214Z,74.81
2022-10-17T08:08:01.625Z,74.91
2022-10-17T08:11:07.422Z,76.10
2022-10-17T08:14:14.118Z,77.92
2022-10-17T08:17:16.580Z,76.83
2022-10-17T08:20:22.162Z,78.77
2022-10-17T08:23:24.573Z,77.65
2022-10-17T08:26:26.932Z,77.00
2022-10-17T08:29:29.841Z,76.87
2022-10-17T08:32:32.708Z,75.83
2022-10-17T08:35:35.920Z,75.33
2022-10-17T08:38:43.103Z,76.70
2022-10-17T08:42:14.330Z,74.92
2022-10-17T08:45:51.999Z,73.56
2022-10-17T08:48:54.591Z,73.80
2022-10-17T08:52:07.078Z,73.85
2022-10-17T08:55:33.909Z,71.22
2022-10-17T08:58:37.368Z,69.85
2022-10-17T09:02:02.903Z,69.90
2022-10-17T09:05:08.397Z,69.50
2022-10-17T09:08:35.335Z,70.98
2022-10-17T09:11:52.503Z,70.60
2022-10-17T09:15:49.121Z,68.50
2022-10-17T09:19:33.813Z,67.52
2022-10-17T09:26:02.486Z,66.94
2022-10-17T09:29:15.594Z,66.44
2022-10-17T09:32:24.037Z,65.89
2022-10-17T09:35:29.373Z,66.24
2022-10-17T09:38:40.977Z,66.86
2022-10-17T09:41:49.763Z,64.93
2022-10-17T09:45:05.190Z,66.09
2022-10-17T09:48:26.215Z,63.69
2022-10-17T09:51:31.147Z,60.24
2022-10-17T09:54:51.758Z,61.44
2022-10-17T09:58:03.787Z,62.30
2022-10-17T10:01:42.046Z,62.73
2022-10-17T10:05:06.585Z,62.36
2022-10-17T10:08:19.311Z,62.19
2022-10-17T10:11:44.231Z,60.40
2022-10-17T10:14:47.354Z,61.33
2022-10-17T10:17:52.815Z,60.71
2022-10-17T10:21:09.801Z,57.56
2022-10-17T10:24:13.702Z,57.05
2022-10-17T10:27:18.141Z,58.13
2022-10-17T10:30:28.087Z,57.95
2022-10-17T10:33:33.766Z,58.47
2022-10-17T10:37:16.981Z,56.10
2022-10-17T10:40:23.607Z,55.10
2022-10-17T10:43:47.863Z,55.46
2022-10-17T10:47:07.118Z,53.04
2022-10-17T10:50:23.774Z,54.20
2022-10-17T10:53:35.105Z,52.28
2022-10-17T10:56:43.851Z,51.90
2022-10-17T10:59:56.720Z,51.73
2022-10-17T11:06:45.392Z,50.92
2022-10-17T11:09:58.620Z,51.61
2022-10-17T11:13:11.674Z,50.66
2022-10-17T11:16:29.582Z,50.13
2022-10-17T11:19:38.083Z,48.73
2022-10-17T11:22:45.439Z,50.31
2022-10-17T11:25:51.762Z,49.62
2022-10-17T11:28:56.130Z,49.47
2022-10-17T11:32:05.771Z,51.23
2022-10-17T11:35:32.446Z,50.53
2022-10-17T11:38:53.449Z,50.22
2022-10-17T11:42:06.949Z,49.34
2022-10-17T11:45:15.798Z,49.59
2022-10-17T11:48:50.044Z,48.65
2022-10-17T11:52:05.303Z,50.01
2022-10-17T11:55:27.529Z,48.65
2022-10-17T11:58:42.444Z,48.20
2022-10-17T12:01:52.663Z,47.91
2022-10-17T12:05:05.642Z,47.99
2022-10-17T12:08:47.231Z,45.26
2022-10-17T12:11:59.012Z,45.22
2022-10-17T12:15:13.832Z,45.18
2022-10-17T12:18:17.679Z,44.58
2022-10-17T12:21:20.340Z,44.34
2022-10-17T12:24:31.949Z,45.60
2022-10-17T12:27:43.444Z,45.92
2022-10-17T12:31:15.627Z,46.02
2022-10-17T12:34:22.273Z,44.27
2022-10-17T12:37:43.120Z,42.44
2022-10-17T12:40:49.030Z,43.40
2022-10-17T12:43:54.017Z,42.77
2022-10-17T12:47:07.969Z,43.65
2022-10-17T12:50:49.298Z,45.54
2022-10-17T12:54:11.966Z,46.53
2022-10-17T12:57:44.377Z,45.20
2022-10-17T13:01:18.883Z,45.90
2022-10-17T13:04:18.419Z,46.82
2022-10-17T13:07:22.362Z,46.70
2022-10-17T13:10:28.470Z,45.64
2022-10-17T13:13:33.891Z,46.95
2022-10-17T13:16:51.356Z,47.12
2022-10-17T13:19:55.487Z,46.70
2022-10-17T13:22:58.639Z,47.69
2022-10-17T13:26:10.210Z,47.60
2022-10-17T13:29:16.349Z,48.22
2022-10-17T13:32:18.818Z,48.70
2022-10-17T13:36:01.871Z,46.96
2022-10-17T13:38:54.990Z,48.34
2022-10-17T13:41:58.088Z,48.43
2022-10-17T13:45:00.487Z,48.65
2022-10-17T13:48:06.847Z,49.62
2022-10-17T13:51:11.187Z,50.71
2022-10-17T13:54:34.925Z,48.46
2022-10-17T13:57:37.697Z,48.20
2022-10-17T14:00:40.566Z,47.86
2022-10-17T14:03:48.565Z,48.77
2022-10-17T14:06:52.535Z,49.25
2022-10-17T14:09:55.409Z,48.57
2022-10-17T14:12:58.450Z,48.48
2022-10-17T14:16:03.486Z,48.84
2022-10-17T14:19:22.964Z,49.91
2022-10-17T14:22:28.134Z,48.76
2022-10-17T14:25:31.806Z,49.05
2022-10-17T14:28:34.849Z,49.69
2022-10-17T14:31:37.314Z,49.64
2022-10-17T14:34:40.852Z,50.19
2022-10-17T14:37:48.825Z,50.40
2022-10-17T14:41:00.942Z,50.78
2022-10-17T14:44:33.068Z,51.54
2022-10-17T14:47:43.692Z,52.21
2022-10-17T14:51:14.686Z,53.34
2022-10-17T14:54:23.097Z,53.01
2022-10-17T14:57:41.688Z,52.08
2022-10-17T15:00:44.184Z,52.29
2022-10-17T15:03:46.744Z,53.30
2022-10-17T15:06:54.822Z,54.00
2022-10-17T15:09:57.385Z,54.55
2022-10-17T15:13:16.413Z,55.08
2022-10-17T15:16:30.751Z,54.81
2022-10-17T15:19:33.451Z,55.27
2022-10-17T15:22:36.702Z,55.37
2022-10-17T15:25:39.294Z,56.97
2022-10-17T15:28:42.014Z,57.40
2022-10-17T15:31:44.815Z,57.36
2022-10-17T15:34:47.355Z,58.42
2022-10-17T15:37:50.375Z,59.24
2022-10-17T15:40:52.911Z,59.89
2022-10-17T15:43:55.683Z,60.10
2022-10-17T15:46:58.082Z,60.69
2022-10-17T15:50:00.867Z,60.73
2022-10-17T15:53:05.727Z,61.08
2022-10-17T15:56:15.059Z,62.42
2022-10-17T15:59:21.755Z,63.35
2022-10-17T16:02:24.443Z,64.31
2022-10-17T16:05:27.107Z,64.68
2022-10-17T16:08:29.486Z,65.31
2022-10-17T16:11:35.411Z,65.26
2022-10-17T16:14:37.824Z,65.75
2022-10-17T16:17:40.530Z,66.08
2022-10-17T16:20:44.104Z,66.77
2022-10-17T16:23:46.663Z,67.17
2022-10-17T16:26:49.367Z,67.58
2022-10-17T16:29:52.095Z,68.74
2022-10-17T16:32:55.436Z,69.12
2022-10-17T16:35:58.079Z,69.01
2022-10-17T16:39:00.891Z,69.78
2022-10-17T16:42:03.342Z,70.32
2022-10-17T16:45:06.263Z,70.95
2022-10-17T16:48:09.333Z,71.80
2022-10-17T16:51:13.337Z,72.47
2022-10-17T16:54:16.275Z,72.95
2022-10-17T16:57:19.285Z,72.99
2022-10-17T17:00:21.961Z,73.07
2022-10-17T17:03:24.407Z,73.97
2022-10-17T17:06:30.605Z,74.10
2022-10-17T17:09:33.320Z,74.24
2022-10-17T17:12:36.347Z,74.69
2022-10-17T17:15:38.820Z,74.48
2022-10-17T17:18:41.762Z,75.40
2022-10-17T17:21:51.006Z,75.34
2022-10-17T17:24:53.472Z,75.28
2022-10-17T17:27:55.776Z,74.98
2022-10-17T17:30:58.343Z,75.53
2022-10-17T17:34:01.450Z,75.52
2022-10-17T17:37:03.811Z,75.29
2022-10-17T17:40:06.766Z,75.22
2022-10-17T17:43:09.119Z,75.71
2022-10-17T17:46:12.024Z,75.87
2022-10-17T17:49:14.437Z,75.63
2022-10-17T17:52:16.874Z,75.56
2022-10-17T17:55:19.440Z,75.93
2022-10-17T17:58:21.796Z,76.33
2022-10-17T18:01:26.869Z,76.88
2022-10-17T18:04:29.481Z,77.14
2022-10-17T18:07:31.858Z,77.90
2022-10-17T18:10:35.478Z,77.87
2022-10-17T18:13:38.238Z,77.40
2022-10-17T18:16:42.217Z,77.61
2022-10-17T18:19:44.603Z,78.05
2022-10-17T18:22:47.103Z,78.77
2022-10-17T18:25:58.470Z,78.81
2022-10-17T18:29:01.162Z,79.18
2022-10-17T18:32:03.557Z,79.83
2022-10-17T18:35:06.335Z,79.29
2022-10-17T18:38:08.693Z,79.66
2022-10-17T18:41:18.046Z,79.61
2022-10-17T18:44:20.518Z,79.93
2022-10-17T18:47:22.994Z,79.41
2022-10-17T18:50:25.924Z,80.26
2022-10-17T18:53:28.909Z,79.95
2022-10-17T18:56:31.929Z,80.26
2022-10-17T18:59:34.474Z,80.47
2022-10-17T19:02:38.047Z,80.18
2022-10-17T19:05:41.455Z,80.42
2022-10-17T19:08:44.631Z,80.42
2022-10-17T19:11:47.286Z,79.96
2022-10-17T19:14:50.854Z,79.43
2022-10-17T19:17:53.207Z,80.25
2022-10-17T19:20:55.810Z,80.66
2022-10-17T19:24:03.824Z,80.53
2022-10-17T19:27:06.883Z,80.97
2022-10-17T19:30:10.731Z,80.90
2022-10-17T19:33:13.484Z,81.11
2022-10-17T19:36:16.474Z,80.96
2022-10-17T19:39:20.979Z,81.11
2022-10-17T19:42:24.118Z,80.64
2022-10-17T19:45:26.430Z,81.10
2022-10-17T19:48:32.005Z,81.59
2022-10-17T19:51:34.750Z,81.82
2022-10-17T19:54:38.913Z,81.40
2022-10-17T19:57:41.383Z,81.08
2022-10-17T20:00:50.993Z,81.67
2022-10-17T20:03:54.348Z,81.98
2022-10-17T20:06:59.809Z,81.80
2022-10-17T20:10:02.329Z,81.93
2022-10-17T20:13:04.931Z,81.83
2022-10-17T20:16:09.064Z,81.56
2022-10-17T20:19:13.568Z,81.79
2022-10-17T20:22:16.055Z,81.92
2022-10-17T20:25:18.590Z,82.01
2022-10-17T20:28:27.846Z,82.61
2022-10-17T20:31:30.778Z,83.02
2022-10-17T20:34:35.642Z,82.73
2022-10-17T20:37:44.283Z,82.40
2022-10-17T20:40:48.132Z,82.74
2022-10-17T20:43:55.402Z,83.28
2022-10-17T20:47:02.279Z,82.40
2022-10-17T20:50:07.602Z,82.65
2022-10-17T20:56:38.191Z,83.61
2022-10-17T20:59:43.229Z,83.52
2022-10-17T21:02:49.420Z,84.07
2022-10-17T21:05:54.219Z,83.90
2022-10-17T21:09:01.483Z,84.14
2022-10-17T21:12:07.643Z,83.94
2022-10-17T21:15:10.805Z,84.03
2022-10-17T21:18:13.141Z,83.48
2022-10-17T21:21:19.894Z,83.32
2022-10-17T21:24:22.518Z,83.72
2022-10-17T21:27:30.823Z,83.68
2022-10-17T21:30:33.215Z,83.42
2022-10-17T21:33:35.540Z,83.80
2022-10-17T21:36:38.561Z,84.20
2022-10-17T21:39:41.074Z,84.17
2022-10-17T21:42:43.403Z,84.32
2022-10-17T21:45:45.849Z,83.39
2022-10-17T21:48:49.349Z,83.82
2022-10-17T21:51:52.896Z,83.95
2022-10-17T21:54:55.190Z,84.57
2022-10-17T21:57:57.567Z,84.50
2022-10-17T22:01:21.710Z,84.26
2022-10-17T22:04:24.135Z,84.30
2022-10-17T22:07:26.548Z,85.09
2022-10-17T22:10:28.983Z,85.12
2022-10-17T22:13:31.361Z,85.50
2022-10-17T22:16:34.929Z,85.37
2022-10-17T22:19:37.305Z,85.21
2022-10-17T22:22:39.619Z,85.70
2022-10-17T22:25:41.942Z,86.04
2022-10-17T22:28:44.374Z,86.04
2022-10-17T22:31:46.966Z,86.21
2022-10-17T22:34:49.360Z,86.47
2022-10-17T22:37:51.654Z,86.75
2022-10-17T22:40:56.686Z,86.58
2022-10-17T22:43:59.186Z,86.08
2022-10-17T22:47:01.541Z,86.30
2022-10-17T22:50:04.071Z,86.48
2022-10-17T22:53:06.464Z,87.07
2022-10-17T22:56:17.838Z,86.87
2022-10-17T22:59:20.375Z,87.22
2022-10-17T23:02:22.907Z,87.51
2022-10-17T23:05:25.260Z,88.09
2022-10-17T23:08:28.299Z,87.50
2022-10-17T23:11:31.268Z,88.26
2022-10-17T23:14:34.280Z,87.95
2022-10-17T23:17:36.703Z,88.13
2022-10-17T23:20:39.692Z,87.70
2022-10-17T23:23:42.049Z,87.65
2022-10-17T23:26:44.435Z,87.51
2022-10-17T23:29:46.770Z,87.94
2022-10-17T23:32:49.230Z,87.32
2022-10-17T23:35:51.599Z,87.54
2022-10-17T23:38:56.464Z,87.69
2022-10-17T23:42:00.908Z,87.55
2022-10-17T23:45:03.987Z,87.79
2022-10-17T23:48:07.207Z,87.37
2022-10-17T23:51:10.729Z,87.72
2022-10-17T23:54:13.067Z,87.48
2022-10-17T23:57:15.568Z,87.57
